Historique des stations

Station météo de Mainvilliers

Altitude de la station : 298 m







Données météorologiques pour le 18/05/2021
Date
Heure
Températures Humidité Point de rosée Vitesse
du vent
Direction Rafales Windchill Pression Pluviométrie
Cumul
Date
Heure
Températures Humidité Point de rosée Vitesse
du vent
Direction Rafales Windchill Pression Pluviométrie
Cumul
18/05/2021 13:1614.3 °C66 %7.8 °C5 km/hSE27 km/h14.4 1016 hPa-
18/05/2021 13:0113.7 °C67 %7.8 °C13 km/hSSO23 km/h12.8 1017 hPa-
18/05/2021 12:4613.1 °C71 %7.8 °C11 km/hSSO19 km/h12.2 1017 hPa-
18/05/2021 12:3112.8 °C75 %8.3 °C16 km/hSO19 km/h10.6 1017 hPa-
18/05/2021 12:1612.4 °C77 %8.3 °C10 km/hSSE19 km/h11.1 1017 hPa-
18/05/2021 12:0112.4 °C76 %8.3 °C5 km/hSO16 km/h12.2 1017 hPa-
18/05/2021 11:4612.1 °C78 %8.3 °C10 km/hSSO18 km/h11.1 1017 hPa-
18/05/2021 11:3112.0 °C78 %8.3 °C6 km/hSO18 km/h12.2 1017 hPa-
18/05/2021 11:1611.8 °C79 %8.3 °C13 km/hSSO16 km/h10.0 1017 hPa-
18/05/2021 11:0111.4 °C82 %8.3 °C6 km/hSE18 km/h11.7 1017 hPa-
18/05/2021 10:4611.2 °C82 %8.3 °C6 km/hSO16 km/h11.1 1017 hPa-
18/05/2021 10:3110.8 °C83 %8.3 °C10 km/hSO19 km/h10.0 1017 hPa-
18/05/2021 10:1610.4 °C85 %8.3 °C14 km/hSSO21 km/h8.3 1017 hPa-
18/05/2021 10:0110.3 °C85 %7.8 °C5 km/hSSO18 km/h10.6 1017 hPa-
18/05/2021 09:4610.1 °C87 %8.3 °C6 km/hSO16 km/h8.9 1017 hPa-
18/05/2021 09:319.8 °C88 %7.8 °C13 km/hSO19 km/h7.8 1017 hPa-
18/05/2021 09:169.7 °C88 %7.8 °C5 km/hO23 km/h8.9 1017 hPa-
18/05/2021 09:009.6 °C89 %7.8 °C10 km/hSO23 km/h7.8 1017 hPa-
18/05/2021 08:469.5 °C91 %8.3 °C11 km/hSO21 km/h7.8 1017 hPa-
18/05/2021 08:319.1 °C92 %7.8 °C8 km/hOSO24 km/h7.8 1017 hPa-
18/05/2021 08:168.8 °C93 %7.8 °C10 km/hSSO16 km/h7.2 1017 hPa-
18/05/2021 08:018.3 °C94 %7.2 °C6 km/hSSO16 km/h7.2 1016 hPa-
18/05/2021 07:468.1 °C94 %7.2 °C3 km/hSSO13 km/h7.8 1016 hPa-
18/05/2021 07:318.1 °C94 %7.2 °C6 km/hS14 km/h7.2 1016 hPa-
18/05/2021 07:167.8 °C94 %7.2 °C6 km/hSSO14 km/h6.7 1016 hPa-
18/05/2021 07:017.7 °C95 %7.2 °C10 km/hSSO11 km/h6.1 1016 hPa-
18/05/2021 06:467.6 °C95 %6.7 °C8 km/hSO10 km/h6.1 1016 hPa-
18/05/2021 06:317.5 °C95 %6.7 °C3 km/hSO8 km/h7.2 1016 hPa-
18/05/2021 06:167.3 °C95 %6.7 °C10 km/hSO11 km/h5.0 1016 hPa-
18/05/2021 06:017.2 °C95 %6.7 °C10 km/hSSO11 km/h5.0 1016 hPa-
18/05/2021 05:467.3 °C95 %6.7 °C5 km/hS11 km/h6.7 1015 hPa-
18/05/2021 05:317.2 °C95 %6.7 °C8 km/hSSE11 km/h5.6 1015 hPa-
18/05/2021 05:167.2 °C95 %6.7 °C11 km/hSSO14 km/h5.0 1016 hPa-
18/05/2021 05:017.2 °C94 %6.1 °C5 km/hSSO13 km/h6.7 1016 hPa-
18/05/2021 04:467.4 °C94 %6.7 °C8 km/hSSO13 km/h5.6 1016 hPa-
18/05/2021 04:317.4 °C94 %6.7 °C5 km/hSSO13 km/h6.7 1015 hPa-
18/05/2021 04:167.4 °C93 %6.7 °C10 km/hSSO16 km/h5.0 1015 hPa-
18/05/2021 04:017.6 °C93 %6.7 °C2 km/hSSO13 km/h7.8 1016 hPa-
18/05/2021 03:467.6 °C93 %6.7 °C2 km/hSO14 km/h7.8 1016 hPa-
18/05/2021 03:307.8 °C93 %6.7 °C8 km/hSSO13 km/h6.1 1016 hPa-
18/05/2021 03:167.9 °C93 %6.7 °C10 km/hSO16 km/h6.1 1016 hPa-
18/05/2021 03:017.9 °C92 %6.7 °C5 km/hS13 km/h7.2 1016 hPa-
18/05/2021 02:468.2 °C92 %7.2 °C3 km/hS13 km/h7.8 1016 hPa-
18/05/2021 02:318.5 °C92 %7.2 °C8 km/hSO16 km/h6.7 1015 hPa-
18/05/2021 02:168.8 °C92 %7.8 °C6 km/hSO14 km/h7.8 1015 hPa-
18/05/2021 02:018.9 °C93 %7.8 °C3 km/hSE16 km/h8.3 1016 hPa-
18/05/2021 01:469.1 °C93 %7.8 °C6 km/hSSO14 km/h7.8 1016 hPa-
18/05/2021 01:319.1 °C93 %8.3 °C5 km/hSSO16 km/h8.3 1016 hPa-
18/05/2021 01:169.3 °C92 %8.3 °C6 km/hSSO14 km/h8.3 1015 hPa-
18/05/2021 01:019.4 °C92 %8.3 °C3 km/hS14 km/h8.9 1015 hPa-
18/05/2021 00:469.5 °C92 %8.3 °C5 km/hSSO16 km/h8.9 1015 hPa-
18/05/2021 00:319.6 °C91 %8.3 °C10 km/hSSO16 km/h7.8 1015 hPa-
18/05/2021 00:169.6 °C91 %8.3 °C10 km/hS13 km/h7.8 1015 hPa-
18/05/2021 00:019.4 °C90 %7.8 °C6 km/hSO14 km/h8.3 1015 hPa-


Minima :

Température : 7.2 °C
Humidité : 66 %
Point de rosée : 6.1 °C
Vent moyen : 2 km/h
Windchill : 5.0
Pression atm. : 1015 hPa
Maxima :

Température : 14.3 °C
Humidité : 95 %
Point de rosée : 8.3 °C
Vent moyen : 16 km/h
Windchill : 14.4
Pression atm. : 1017 hPa
Rafales max : 27 km/h
Cumul de pluie sur 24H : 0 mm

Mainvilliers est une commune du département Eure-et-Loir (28).
La station météorologique du réseau de l'association la plus proche de Mainvilliers est celle de Chaudon
Site du propriétaire de la station : http://meteo28300.fr/



Icône Facebook Association Météo Centre Icône Twitter Association Météo Centre Icône Chaîne Youtube Association Météo Centre Icône contact Association Météo Centre Icône Insta Association Météo Centre